sensor_id;sensor_type;location;lat;lon;timestamp;P1;durP1;ratioP1;P2;durP2;ratioP2
12900;SDS011;6518;50.930;5.344;2023-08-08T00:00:50;3.35;;;2.20;;
12900;SDS011;6518;50.930;5.344;2023-08-08T00:03:17;4.07;;;2.15;;
12900;SDS011;6518;50.930;5.344;2023-08-08T00:05:44;3.85;;;2.30;;
12900;SDS011;6518;50.930;5.344;2023-08-08T00:08:11;4.82;;;2.65;;
12900;SDS011;6518;50.930;5.344;2023-08-08T00:10:38;3.05;;;1.95;;
12900;SDS011;6518;50.930;5.344;2023-08-08T00:13:05;7.13;;;2.53;;
12900;SDS011;6518;50.930;5.344;2023-08-08T00:15:33;5.35;;;2.20;;
12900;SDS011;6518;50.930;5.344;2023-08-08T00:18:00;5.37;;;2.40;;
12900;SDS011;6518;50.930;5.344;2023-08-08T00:20:27;3.33;;;2.03;;
12900;SDS011;6518;50.930;5.344;2023-08-08T00:22:54;3.50;;;2.03;;
12900;SDS011;6518;50.930;5.344;2023-08-08T00:25:21;2.87;;;1.83;;
12900;SDS011;6518;50.930;5.344;2023-08-08T00:27:49;3.20;;;2.13;;
12900;SDS011;6518;50.930;5.344;2023-08-08T00:30:16;5.40;;;2.10;;
12900;SDS011;6518;50.930;5.344;2023-08-08T00:32:45;3.73;;;1.93;;
12900;SDS011;6518;50.930;5.344;2023-08-08T00:35:12;3.97;;;2.33;;
12900;SDS011;6518;50.930;5.344;2023-08-08T00:37:39;5.43;;;2.27;;
12900;SDS011;6518;50.930;5.344;2023-08-08T00:40:06;5.22;;;2.13;;
12900;SDS011;6518;50.930;5.344;2023-08-08T00:42:34;6.17;;;1.93;;
12900;SDS011;6518;50.930;5.344;2023-08-08T00:45:02;4.20;;;2.20;;
12900;SDS011;6518;50.930;5.344;2023-08-08T00:47:30;7.72;;;2.10;;
12900;SDS011;6518;50.930;5.344;2023-08-08T00:49:59;3.83;;;2.07;;
12900;SDS011;6518;50.930;5.344;2023-08-08T00:52:27;5.97;;;2.00;;
12900;SDS011;6518;50.930;5.344;2023-08-08T00:54:55;4.43;;;2.07;;
12900;SDS011;6518;50.930;5.344;2023-08-08T00:57:21;3.33;;;1.97;;
12900;SDS011;6518;50.930;5.344;2023-08-08T00:59:49;7.50;;;2.70;;
12900;SDS011;6518;50.930;5.344;2023-08-08T01:02:16;3.93;;;2.00;;
12900;SDS011;6518;50.930;5.344;2023-08-08T01:04:43;8.40;;;2.10;;
12900;SDS011;6518;50.930;5.344;2023-08-08T01:07:15;5.57;;;2.40;;
12900;SDS011;6518;50.930;5.344;2023-08-08T01:09:50;5.13;;;2.27;;
12900;SDS011;6518;50.930;5.344;2023-08-08T01:12:22;4.93;;;2.30;;
12900;SDS011;6518;50.930;5.344;2023-08-08T01:14:51;3.97;;;1.93;;
12900;SDS011;6518;50.930;5.344;2023-08-08T01:17:19;4.57;;;2.43;;
12900;SDS011;6518;50.930;5.344;2023-08-08T01:19:48;4.70;;;2.27;;
12900;SDS011;6518;50.930;5.344;2023-08-08T01:22:20;5.53;;;2.40;;
12900;SDS011;6518;50.930;5.344;2023-08-08T01:24:53;5.97;;;2.23;;
12900;SDS011;6518;50.930;5.344;2023-08-08T01:27:20;6.20;;;2.90;;
12900;SDS011;6518;50.930;5.344;2023-08-08T01:29:48;6.83;;;2.40;;
12900;SDS011;6518;50.930;5.344;2023-08-08T01:32:15;6.00;;;2.60;;
12900;SDS011;6518;50.930;5.344;2023-08-08T01:34:42;5.70;;;2.30;;
12900;SDS011;6518;50.930;5.344;2023-08-08T01:37:10;7.13;;;2.47;;
12900;SDS011;6518;50.930;5.344;2023-08-08T01:39:41;6.97;;;2.40;;
12900;SDS011;6518;50.930;5.344;2023-08-08T01:42:11;8.73;;;2.50;;
12900;SDS011;6518;50.930;5.344;2023-08-08T01:44:40;7.80;;;2.63;;
12900;SDS011;6518;50.930;5.344;2023-08-08T01:47:08;8.30;;;2.93;;
12900;SDS011;6518;50.930;5.344;2023-08-08T01:49:35;6.67;;;2.83;;
12900;SDS011;6518;50.930;5.344;2023-08-08T01:52:02;7.10;;;2.90;;
12900;SDS011;6518;50.930;5.344;2023-08-08T01:54:30;5.90;;;2.47;;
12900;SDS011;6518;50.930;5.344;2023-08-08T01:56:57;6.50;;;2.77;;
12900;SDS011;6518;50.930;5.344;2023-08-08T01:59:25;6.67;;;2.63;;
12900;SDS011;6518;50.930;5.344;2023-08-08T02:01:52;4.88;;;2.70;;
12900;SDS011;6518;50.930;5.344;2023-08-08T02:04:20;10.30;;;3.23;;
12900;SDS011;6518;50.930;5.344;2023-08-08T02:06:47;4.63;;;2.93;;
12900;SDS011;6518;50.930;5.344;2023-08-08T02:09:13;5.40;;;2.63;;
12900;SDS011;6518;50.930;5.344;2023-08-08T02:11:40;8.77;;;2.70;;
12900;SDS011;6518;50.930;5.344;2023-08-08T02:14:07;6.03;;;2.90;;
12900;SDS011;6518;50.930;5.344;2023-08-08T02:16:36;7.57;;;2.97;;
12900;SDS011;6518;50.930;5.344;2023-08-08T02:19:04;7.87;;;3.60;;
12900;SDS011;6518;50.930;5.344;2023-08-08T02:21:31;9.97;;;2.90;;
12900;SDS011;6518;50.930;5.344;2023-08-08T02:23:58;9.53;;;2.80;;
12900;SDS011;6518;50.930;5.344;2023-08-08T02:26:25;5.87;;;2.80;;
12900;SDS011;6518;50.930;5.344;2023-08-08T02:28:52;9.80;;;2.93;;
12900;SDS011;6518;50.930;5.344;2023-08-08T02:31:19;6.67;;;3.20;;
12900;SDS011;6518;50.930;5.344;2023-08-08T02:33:48;4.93;;;2.80;;
12900;SDS011;6518;50.930;5.344;2023-08-08T02:36:16;5.10;;;2.57;;
12900;SDS011;6518;50.930;5.344;2023-08-08T02:38:43;5.23;;;2.97;;
12900;SDS011;6518;50.930;5.344;2023-08-08T02:41:10;9.07;;;3.17;;
12900;SDS011;6518;50.930;5.344;2023-08-08T02:43:37;7.17;;;2.80;;
12900;SDS011;6518;50.930;5.344;2023-08-08T02:46:04;7.73;;;3.00;;
12900;SDS011;6518;50.930;5.344;2023-08-08T02:48:31;4.77;;;2.73;;
12900;SDS011;6518;50.930;5.344;2023-08-08T02:50:59;7.77;;;3.10;;
12900;SDS011;6518;50.930;5.344;2023-08-08T02:53:26;6.97;;;3.40;;
12900;SDS011;6518;50.930;5.344;2023-08-08T02:55:53;7.30;;;3.10;;
12900;SDS011;6518;50.930;5.344;2023-08-08T02:58:20;8.27;;;3.20;;
12900;SDS011;6518;50.930;5.344;2023-08-08T03:00:47;7.03;;;3.00;;
12900;SDS011;6518;50.930;5.344;2023-08-08T03:03:14;9.20;;;3.33;;
12900;SDS011;6518;50.930;5.344;2023-08-08T03:05:41;8.50;;;3.60;;
12900;SDS011;6518;50.930;5.344;2023-08-08T03:08:12;9.83;;;3.07;;
12900;SDS011;6518;50.930;5.344;2023-08-08T03:10:39;7.83;;;3.47;;
12900;SDS011;6518;50.930;5.344;2023-08-08T03:13:07;9.90;;;3.30;;
12900;SDS011;6518;50.930;5.344;2023-08-08T03:15:34;7.90;;;3.30;;
12900;SDS011;6518;50.930;5.344;2023-08-08T03:18:01;9.13;;;3.37;;
12900;SDS011;6518;50.930;5.344;2023-08-08T03:20:28;9.07;;;3.40;;
12900;SDS011;6518;50.930;5.344;2023-08-08T03:22:55;10.13;;;3.63;;
12900;SDS011;6518;50.930;5.344;2023-08-08T03:25:24;10.47;;;3.47;;
12900;SDS011;6518;50.930;5.344;2023-08-08T03:27:52;13.30;;;3.80;;
12900;SDS011;6518;50.930;5.344;2023-08-08T03:30:19;8.23;;;3.00;;
12900;SDS011;6518;50.930;5.344;2023-08-08T03:32:46;8.57;;;3.40;;
12900;SDS011;6518;50.930;5.344;2023-08-08T03:35:13;7.87;;;3.20;;
12900;SDS011;6518;50.930;5.344;2023-08-08T03:37:41;9.47;;;3.63;;
12900;SDS011;6518;50.930;5.344;2023-08-08T03:40:08;8.57;;;3.50;;
12900;SDS011;6518;50.930;5.344;2023-08-08T03:42:37;9.10;;;3.20;;
12900;SDS011;6518;50.930;5.344;2023-08-08T03:45:04;7.57;;;3.10;;
12900;SDS011;6518;50.930;5.344;2023-08-08T03:47:32;9.17;;;3.50;;
12900;SDS011;6518;50.930;5.344;2023-08-08T03:49:59;11.23;;;3.83;;
12900;SDS011;6518;50.930;5.344;2023-08-08T03:52:27;8.10;;;3.90;;
12900;SDS011;6518;50.930;5.344;2023-08-08T03:54:54;8.20;;;3.43;;
12900;SDS011;6518;50.930;5.344;2023-08-08T03:57:21;9.63;;;3.63;;
12900;SDS011;6518;50.930;5.344;2023-08-08T03:59:50;7.60;;;3.50;;
12900;SDS011;6518;50.930;5.344;2023-08-08T04:02:17;8.37;;;3.37;;
12900;SDS011;6518;50.930;5.344;2023-08-08T04:04:44;8.13;;;3.43;;
12900;SDS011;6518;50.930;5.344;2023-08-08T04:07:11;18.03;;;4.03;;
12900;SDS011;6518;50.930;5.344;2023-08-08T04:09:39;5.13;;;3.23;;
12900;SDS011;6518;50.930;5.344;2023-08-08T04:12:07;8.60;;;3.50;;
12900;SDS011;6518;50.930;5.344;2023-08-08T04:14:35;10.00;;;3.93;;
12900;SDS011;6518;50.930;5.344;2023-08-08T04:17:04;8.63;;;3.37;;
12900;SDS011;6518;50.930;5.344;2023-08-08T04:19:32;7.93;;;3.47;;
12900;SDS011;6518;50.930;5.344;2023-08-08T04:21:59;11.17;;;3.97;;
12900;SDS011;6518;50.930;5.344;2023-08-08T04:24:25;8.27;;;3.43;;
12900;SDS011;6518;50.930;5.344;2023-08-08T04:26:52;9.87;;;3.43;;
12900;SDS011;6518;50.930;5.344;2023-08-08T04:29:19;9.50;;;3.60;;
12900;SDS011;6518;50.930;5.344;2023-08-08T04:31:46;9.77;;;3.40;;
12900;SDS011;6518;50.930;5.344;2023-08-08T04:34:14;12.60;;;3.93;;
12900;SDS011;6518;50.930;5.344;2023-08-08T04:36:42;5.80;;;3.33;;
12900;SDS011;6518;50.930;5.344;2023-08-08T04:39:09;7.17;;;3.70;;
12900;SDS011;6518;50.930;5.344;2023-08-08T04:41:36;10.30;;;3.40;;
12900;SDS011;6518;50.930;5.344;2023-08-08T04:44:03;9.43;;;3.43;;
12900;SDS011;6518;50.930;5.344;2023-08-08T04:46:30;9.03;;;3.50;;
12900;SDS011;6518;50.930;5.344;2023-08-08T04:48:57;14.43;;;3.87;;
12900;SDS011;6518;50.930;5.344;2023-08-08T04:51:26;13.27;;;4.10;;
12900;SDS011;6518;50.930;5.344;2023-08-08T04:53:53;9.03;;;3.67;;
12900;SDS011;6518;50.930;5.344;2023-08-08T04:56:21;10.30;;;4.20;;
12900;SDS011;6518;50.930;5.344;2023-08-08T04:58:49;9.00;;;4.00;;
12900;SDS011;6518;50.930;5.344;2023-08-08T05:01:16;11.93;;;3.73;;
12900;SDS011;6518;50.930;5.344;2023-08-08T05:03:45;8.63;;;3.70;;
12900;SDS011;6518;50.930;5.344;2023-08-08T05:06:12;10.13;;;3.77;;
12900;SDS011;6518;50.930;5.344;2023-08-08T05:08:40;10.73;;;3.40;;
12900;SDS011;6518;50.930;5.344;2023-08-08T05:11:08;12.07;;;3.93;;
12900;SDS011;6518;50.930;5.344;2023-08-08T05:13:34;12.10;;;4.30;;
12900;SDS011;6518;50.930;5.344;2023-08-08T05:16:01;9.30;;;4.00;;
12900;SDS011;6518;50.930;5.344;2023-08-08T05:18:28;13.17;;;4.37;;
12900;SDS011;6518;50.930;5.344;2023-08-08T05:20:55;9.30;;;4.17;;
12900;SDS011;6518;50.930;5.344;2023-08-08T05:23:22;15.00;;;4.73;;
12900;SDS011;6518;50.930;5.344;2023-08-08T05:25:50;10.90;;;4.87;;
12900;SDS011;6518;50.930;5.344;2023-08-08T05:28:17;10.40;;;4.63;;
12900;SDS011;6518;50.930;5.344;2023-08-08T05:30:45;14.40;;;5.33;;
12900;SDS011;6518;50.930;5.344;2023-08-08T05:33:12;11.57;;;4.93;;
12900;SDS011;6518;50.930;5.344;2023-08-08T05:35:39;12.07;;;4.73;;
12900;SDS011;6518;50.930;5.344;2023-08-08T05:38:06;11.47;;;4.40;;
12900;SDS011;6518;50.930;5.344;2023-08-08T05:40:33;13.70;;;4.50;;
12900;SDS011;6518;50.930;5.344;2023-08-08T05:43:02;14.40;;;4.60;;
12900;SDS011;6518;50.930;5.344;2023-08-08T05:45:30;7.93;;;4.37;;
12900;SDS011;6518;50.930;5.344;2023-08-08T05:47:57;12.73;;;4.50;;
12900;SDS011;6518;50.930;5.344;2023-08-08T05:50:26;13.80;;;4.70;;
12900;SDS011;6518;50.930;5.344;2023-08-08T05:52:53;11.93;;;5.00;;
12900;SDS011;6518;50.930;5.344;2023-08-08T05:55:20;9.73;;;4.82;;
12900;SDS011;6518;50.930;5.344;2023-08-08T05:57:47;13.80;;;4.37;;
12900;SDS011;6518;50.930;5.344;2023-08-08T06:00:16;13.40;;;4.67;;
12900;SDS011;6518;50.930;5.344;2023-08-08T06:02:43;12.85;;;4.50;;
12900;SDS011;6518;50.930;5.344;2023-08-08T06:05:10;14.02;;;4.88;;
12900;SDS011;6518;50.930;5.344;2023-08-08T06:07:38;8.07;;;4.50;;
12900;SDS011;6518;50.930;5.344;2023-08-08T06:10:05;10.25;;;4.45;;
12900;SDS011;6518;50.930;5.344;2023-08-08T06:12:33;14.52;;;4.80;;
12900;SDS011;6518;50.930;5.344;2023-08-08T06:15:00;11.57;;;4.10;;
12900;SDS011;6518;50.930;5.344;2023-08-08T06:17:28;10.00;;;4.53;;
12900;SDS011;6518;50.930;5.344;2023-08-08T06:19:55;9.95;;;4.60;;
12900;SDS011;6518;50.930;5.344;2023-08-08T06:22:22;12.88;;;3.97;;
12900;SDS011;6518;50.930;5.344;2023-08-08T06:24:49;8.02;;;3.90;;
12900;SDS011;6518;50.930;5.344;2023-08-08T06:27:17;10.68;;;4.32;;
12900;SDS011;6518;50.930;5.344;2023-08-08T06:29:44;11.20;;;3.97;;
12900;SDS011;6518;50.930;5.344;2023-08-08T06:32:11;7.55;;;3.88;;
12900;SDS011;6518;50.930;5.344;2023-08-08T06:34:39;8.48;;;3.35;;
12900;SDS011;6518;50.930;5.344;2023-08-08T06:37:06;11.65;;;4.40;;
12900;SDS011;6518;50.930;5.344;2023-08-08T06:39:33;10.77;;;4.25;;
12900;SDS011;6518;50.930;5.344;2023-08-08T06:42:03;8.65;;;3.50;;
12900;SDS011;6518;50.930;5.344;2023-08-08T06:44:31;8.45;;;3.55;;
12900;SDS011;6518;50.930;5.344;2023-08-08T06:46:59;10.65;;;3.90;;
12900;SDS011;6518;50.930;5.344;2023-08-08T06:49:26;11.15;;;3.70;;
12900;SDS011;6518;50.930;5.344;2023-08-08T06:51:55;14.15;;;4.47;;
12900;SDS011;6518;50.930;5.344;2023-08-08T06:54:22;10.00;;;3.50;;
12900;SDS011;6518;50.930;5.344;2023-08-08T06:56:49;11.18;;;4.00;;
12900;SDS011;6518;50.930;5.344;2023-08-08T06:59:16;9.30;;;3.72;;
12900;SDS011;6518;50.930;5.344;2023-08-08T07:01:43;8.75;;;3.35;;
12900;SDS011;6518;50.930;5.344;2023-08-08T07:04:11;13.43;;;4.00;;
12900;SDS011;6518;50.930;5.344;2023-08-08T07:06:38;9.27;;;3.05;;
12900;SDS011;6518;50.930;5.344;2023-08-08T07:09:06;10.52;;;3.80;;
12900;SDS011;6518;50.930;5.344;2023-08-08T07:11:35;11.90;;;3.58;;
12900;SDS011;6518;50.930;5.344;2023-08-08T07:14:02;11.07;;;3.65;;
12900;SDS011;6518;50.930;5.344;2023-08-08T07:16:30;10.02;;;3.28;;
12900;SDS011;6518;50.930;5.344;2023-08-08T07:18:57;7.70;;;3.75;;
12900;SDS011;6518;50.930;5.344;2023-08-08T07:21:24;8.50;;;3.67;;
12900;SDS011;6518;50.930;5.344;2023-08-08T07:23:52;13.35;;;4.53;;
12900;SDS011;6518;50.930;5.344;2023-08-08T07:26:21;9.15;;;3.92;;
12900;SDS011;6518;50.930;5.344;2023-08-08T07:28:48;11.10;;;4.07;;
12900;SDS011;6518;50.930;5.344;2023-08-08T07:31:15;8.45;;;3.40;;
12900;SDS011;6518;50.930;5.344;2023-08-08T07:33:42;7.43;;;3.72;;
12900;SDS011;6518;50.930;5.344;2023-08-08T07:36:09;10.38;;;3.60;;
12900;SDS011;6518;50.930;5.344;2023-08-08T07:38:36;11.73;;;3.45;;
12900;SDS011;6518;50.930;5.344;2023-08-08T07:41:03;10.13;;;3.40;;
12900;SDS011;6518;50.930;5.344;2023-08-08T07:43:31;7.43;;;3.30;;
12900;SDS011;6518;50.930;5.344;2023-08-08T07:45:59;5.40;;;3.20;;
12900;SDS011;6518;50.930;5.344;2023-08-08T07:48:25;9.60;;;3.78;;
12900;SDS011;6518;50.930;5.344;2023-08-08T07:50:53;12.23;;;3.83;;
12900;SDS011;6518;50.930;5.344;2023-08-08T07:53:19;8.77;;;3.20;;
12900;SDS011;6518;50.930;5.344;2023-08-08T07:55:46;9.25;;;3.33;;
12900;SDS011;6518;50.930;5.344;2023-08-08T07:58:13;9.40;;;3.47;;
12900;SDS011;6518;50.930;5.344;2023-08-08T08:00:42;10.80;;;3.25;;
12900;SDS011;6518;50.930;5.344;2023-08-08T08:03:09;10.63;;;3.13;;
12900;SDS011;6518;50.930;5.344;2023-08-08T08:05:36;7.72;;;3.33;;
12900;SDS011;6518;50.930;5.344;2023-08-08T08:08:03;5.28;;;3.10;;
12900;SDS011;6518;50.930;5.344;2023-08-08T08:10:31;9.00;;;3.20;;
12900;SDS011;6518;50.930;5.344;2023-08-08T08:12:58;8.55;;;3.00;;
12900;SDS011;6518;50.930;5.344;2023-08-08T08:15:25;6.95;;;3.03;;
12900;SDS011;6518;50.930;5.344;2023-08-08T08:17:53;7.68;;;3.22;;
12900;SDS011;6518;50.930;5.344;2023-08-08T08:20:20;11.57;;;3.70;;
12900;SDS011;6518;50.930;5.344;2023-08-08T08:22:47;7.70;;;2.60;;
12900;SDS011;6518;50.930;5.344;2023-08-08T08:25:14;6.93;;;2.97;;
12900;SDS011;6518;50.930;5.344;2023-08-08T08:27:41;10.02;;;3.17;;
12900;SDS011;6518;50.930;5.344;2023-08-08T08:30:09;8.85;;;3.05;;
12900;SDS011;6518;50.930;5.344;2023-08-08T08:32:37;7.93;;;3.10;;
12900;SDS011;6518;50.930;5.344;2023-08-08T08:35:07;8.30;;;2.75;;
12900;SDS011;6518;50.930;5.344;2023-08-08T08:37:34;8.23;;;3.10;;
12900;SDS011;6518;50.930;5.344;2023-08-08T08:40:01;6.15;;;2.72;;
12900;SDS011;6518;50.930;5.344;2023-08-08T08:42:30;5.45;;;2.88;;
12900;SDS011;6518;50.930;5.344;2023-08-08T08:44:59;9.68;;;3.13;;
12900;SDS011;6518;50.930;5.344;2023-08-08T08:47:29;10.50;;;2.95;;
12900;SDS011;6518;50.930;5.344;2023-08-08T08:49:58;8.68;;;2.80;;
12900;SDS011;6518;50.930;5.344;2023-08-08T08:52:27;10.10;;;2.83;;
12900;SDS011;6518;50.930;5.344;2023-08-08T08:54:54;7.55;;;2.85;;
12900;SDS011;6518;50.930;5.344;2023-08-08T08:57:22;8.68;;;2.95;;
12900;SDS011;6518;50.930;5.344;2023-08-08T08:59:49;5.75;;;3.08;;
12900;SDS011;6518;50.930;5.344;2023-08-08T09:02:17;8.63;;;2.90;;
12900;SDS011;6518;50.930;5.344;2023-08-08T09:04:44;9.30;;;2.67;;
12900;SDS011;6518;50.930;5.344;2023-08-08T09:07:12;7.43;;;3.35;;
12900;SDS011;6518;50.930;5.344;2023-08-08T09:09:43;6.63;;;2.80;;
12900;SDS011;6518;50.930;5.344;2023-08-08T09:12:10;9.50;;;2.65;;
12900;SDS011;6518;50.930;5.344;2023-08-08T09:14:39;9.93;;;2.67;;
12900;SDS011;6518;50.930;5.344;2023-08-08T09:17:10;5.28;;;2.40;;
12900;SDS011;6518;50.930;5.344;2023-08-08T09:19:38;6.65;;;2.42;;
12900;SDS011;6518;50.930;5.344;2023-08-08T09:22:08;7.53;;;2.65;;
12900;SDS011;6518;50.930;5.344;2023-08-08T09:24:37;9.13;;;2.75;;
12900;SDS011;6518;50.930;5.344;2023-08-08T09:27:07;9.27;;;3.28;;
12900;SDS011;6518;50.930;5.344;2023-08-08T09:29:35;7.72;;;2.50;;
12900;SDS011;6518;50.930;5.344;2023-08-08T09:32:02;6.65;;;2.63;;
12900;SDS011;6518;50.930;5.344;2023-08-08T09:34:30;9.18;;;2.60;;
12900;SDS011;6518;50.930;5.344;2023-08-08T09:36:57;9.48;;;2.58;;
12900;SDS011;6518;50.930;5.344;2023-08-08T09:39:25;8.18;;;2.50;;
12900;SDS011;6518;50.930;5.344;2023-08-08T09:41:52;6.55;;;2.58;;
12900;SDS011;6518;50.930;5.344;2023-08-08T09:44:24;8.15;;;2.60;;
12900;SDS011;6518;50.930;5.344;2023-08-08T09:46:54;6.38;;;2.70;;
12900;SDS011;6518;50.930;5.344;2023-08-08T09:49:21;8.05;;;2.30;;
12900;SDS011;6518;50.930;5.344;2023-08-08T09:51:49;7.93;;;2.83;;
12900;SDS011;6518;50.930;5.344;2023-08-08T09:54:16;5.38;;;2.05;;
12900;SDS011;6518;50.930;5.344;2023-08-08T09:56:43;6.70;;;2.40;;
12900;SDS011;6518;50.930;5.344;2023-08-08T09:59:10;8.68;;;2.80;;
12900;SDS011;6518;50.930;5.344;2023-08-08T10:01:41;5.25;;;2.33;;
12900;SDS011;6518;50.930;5.344;2023-08-08T10:04:09;6.60;;;2.42;;
12900;SDS011;6518;50.930;5.344;2023-08-08T10:06:38;7.32;;;3.13;;
12900;SDS011;6518;50.930;5.344;2023-08-08T10:09:04;7.82;;;2.63;;
12900;SDS011;6518;50.930;5.344;2023-08-08T10:11:32;5.55;;;2.67;;
12900;SDS011;6518;50.930;5.344;2023-08-08T10:14:01;6.63;;;2.88;;
12900;SDS011;6518;50.930;5.344;2023-08-08T10:16:31;8.82;;;2.50;;
12900;SDS011;6518;50.930;5.344;2023-08-08T10:19:00;6.75;;;2.58;;
12900;SDS011;6518;50.930;5.344;2023-08-08T10:21:32;5.15;;;1.90;;
12900;SDS011;6518;50.930;5.344;2023-08-08T10:24:01;8.75;;;2.33;;
12900;SDS011;6518;50.930;5.344;2023-08-08T10:26:32;6.65;;;2.45;;
12900;SDS011;6518;50.930;5.344;2023-08-08T10:28:59;4.22;;;2.30;;
12900;SDS011;6518;50.930;5.344;2023-08-08T10:31:32;5.95;;;2.38;;
12900;SDS011;6518;50.930;5.344;2023-08-08T10:34:05;5.72;;;2.22;;
12900;SDS011;6518;50.930;5.344;2023-08-08T10:36:45;7.45;;;2.60;;
12900;SDS011;6518;50.930;5.344;2023-08-08T10:39:15;7.47;;;2.67;;
12900;SDS011;6518;50.930;5.344;2023-08-08T10:41:44;5.88;;;2.40;;
12900;SDS011;6518;50.930;5.344;2023-08-08T10:44:12;6.93;;;2.45;;
12900;SDS011;6518;50.930;5.344;2023-08-08T10:46:40;5.40;;;2.20;;
12900;SDS011;6518;50.930;5.344;2023-08-08T10:49:10;6.47;;;2.85;;
12900;SDS011;6518;50.930;5.344;2023-08-08T10:51:41;4.88;;;2.38;;
12900;SDS011;6518;50.930;5.344;2023-08-08T10:54:12;9.35;;;2.53;;
12900;SDS011;6518;50.930;5.344;2023-08-08T10:56:40;6.00;;;2.50;;
12900;SDS011;6518;50.930;5.344;2023-08-08T10:59:14;8.18;;;2.63;;
12900;SDS011;6518;50.930;5.344;2023-08-08T11:01:42;7.68;;;2.35;;
12900;SDS011;6518;50.930;5.344;2023-08-08T11:04:14;5.22;;;2.30;;
12900;SDS011;6518;50.930;5.344;2023-08-08T11:06:42;5.47;;;2.33;;
12900;SDS011;6518;50.930;5.344;2023-08-08T11:09:09;5.93;;;2.30;;
12900;SDS011;6518;50.930;5.344;2023-08-08T11:11:37;7.32;;;2.55;;
12900;SDS011;6518;50.930;5.344;2023-08-08T11:14:11;5.10;;;2.17;;
12900;SDS011;6518;50.930;5.344;2023-08-08T11:16:39;7.85;;;2.22;;
12900;SDS011;6518;50.930;5.344;2023-08-08T11:19:06;5.10;;;2.33;;
12900;SDS011;6518;50.930;5.344;2023-08-08T11:21:36;6.35;;;2.00;;
12900;SDS011;6518;50.930;5.344;2023-08-08T11:24:06;6.78;;;2.33;;
12900;SDS011;6518;50.930;5.344;2023-08-08T11:26:33;6.95;;;2.22;;
12900;SDS011;6518;50.930;5.344;2023-08-08T11:29:01;6.15;;;2.22;;
12900;SDS011;6518;50.930;5.344;2023-08-08T11:31:32;3.90;;;2.00;;
12900;SDS011;6518;50.930;5.344;2023-08-08T11:34:00;4.72;;;2.08;;
12900;SDS011;6518;50.930;5.344;2023-08-08T11:36:29;4.53;;;2.03;;
12900;SDS011;6518;50.930;5.344;2023-08-08T11:38:59;8.07;;;2.30;;
12900;SDS011;6518;50.930;5.344;2023-08-08T11:41:31;5.38;;;2.30;;
12900;SDS011;6518;50.930;5.344;2023-08-08T11:43:58;6.43;;;2.03;;
12900;SDS011;6518;50.930;5.344;2023-08-08T11:46:25;6.68;;;2.58;;
12900;SDS011;6518;50.930;5.344;2023-08-08T11:48:52;7.95;;;2.20;;
12900;SDS011;6518;50.930;5.344;2023-08-08T11:51:19;4.32;;;1.90;;
12900;SDS011;6518;50.930;5.344;2023-08-08T11:53:50;5.93;;;2.28;;
12900;SDS011;6518;50.930;5.344;2023-08-08T11:56:20;6.28;;;2.45;;
12900;SDS011;6518;50.930;5.344;2023-08-08T11:58:49;4.43;;;2.10;;
12900;SDS011;6518;50.930;5.344;2023-08-08T12:01:19;6.65;;;2.45;;
12900;SDS011;6518;50.930;5.344;2023-08-08T12:03:46;4.05;;;1.75;;
12900;SDS011;6518;50.930;5.344;2023-08-08T12:06:13;4.25;;;2.00;;
12900;SDS011;6518;50.930;5.344;2023-08-08T12:08:41;5.45;;;2.28;;
12900;SDS011;6518;50.930;5.344;2023-08-08T12:11:10;6.35;;;2.30;;
12900;SDS011;6518;50.930;5.344;2023-08-08T12:13:40;7.10;;;2.08;;
12900;SDS011;6518;50.930;5.344;2023-08-08T12:16:08;5.32;;;2.28;;
12900;SDS011;6518;50.930;5.344;2023-08-08T12:18:36;6.00;;;2.15;;
12900;SDS011;6518;50.930;5.344;2023-08-08T12:21:04;5.05;;;2.33;;
12900;SDS011;6518;50.930;5.344;2023-08-08T12:23:30;7.10;;;2.00;;
12900;SDS011;6518;50.930;5.344;2023-08-08T12:25:58;5.68;;;2.17;;
12900;SDS011;6518;50.930;5.344;2023-08-08T12:28:25;4.72;;;2.22;;
12900;SDS011;6518;50.930;5.344;2023-08-08T12:30:54;5.40;;;2.10;;
12900;SDS011;6518;50.930;5.344;2023-08-08T12:33:21;6.05;;;2.10;;
12900;SDS011;6518;50.930;5.344;2023-08-08T12:35:48;6.13;;;2.28;;
12900;SDS011;6518;50.930;5.344;2023-08-08T12:38:15;5.53;;;1.95;;
12900;SDS011;6518;50.930;5.344;2023-08-08T12:40:42;4.80;;;1.92;;
12900;SDS011;6518;50.930;5.344;2023-08-08T12:43:09;7.25;;;2.10;;
12900;SDS011;6518;50.930;5.344;2023-08-08T12:45:38;4.78;;;2.17;;
12900;SDS011;6518;50.930;5.344;2023-08-08T12:48:07;3.80;;;1.67;;
12900;SDS011;6518;50.930;5.344;2023-08-08T12:50:34;6.57;;;1.98;;
12900;SDS011;6518;50.930;5.344;2023-08-08T12:53:01;6.70;;;1.92;;
12900;SDS011;6518;50.930;5.344;2023-08-08T12:55:29;4.80;;;1.70;;
12900;SDS011;6518;50.930;5.344;2023-08-08T12:57:56;5.45;;;2.28;;
12900;SDS011;6518;50.930;5.344;2023-08-08T13:00:23;2.70;;;1.40;;
12900;SDS011;6518;50.930;5.344;2023-08-08T13:02:50;4.65;;;1.48;;
12900;SDS011;6518;50.930;5.344;2023-08-08T13:05:19;5.20;;;1.80;;
12900;SDS011;6518;50.930;5.344;2023-08-08T13:07:46;2.20;;;1.58;;
12900;SDS011;6518;50.930;5.344;2023-08-08T13:10:13;3.30;;;1.60;;
12900;SDS011;6518;50.930;5.344;2023-08-08T13:12:40;3.95;;;1.30;;
12900;SDS011;6518;50.930;5.344;2023-08-08T13:15:08;5.18;;;1.60;;
12900;SDS011;6518;50.930;5.344;2023-08-08T13:17:36;3.85;;;1.90;;
12900;SDS011;6518;50.930;5.344;2023-08-08T13:20:03;3.10;;;1.33;;
12900;SDS011;6518;50.930;5.344;2023-08-08T13:22:34;5.45;;;1.83;;
12900;SDS011;6518;50.930;5.344;2023-08-08T13:25:01;3.75;;;1.60;;
12900;SDS011;6518;50.930;5.344;2023-08-08T13:27:29;4.88;;;1.52;;
12900;SDS011;6518;50.930;5.344;2023-08-08T13:29:58;3.80;;;1.50;;
12900;SDS011;6518;50.930;5.344;2023-08-08T13:32:25;2.67;;;1.50;;
12900;SDS011;6518;50.930;5.344;2023-08-08T13:34:52;3.40;;;1.60;;
12900;SDS011;6518;50.930;5.344;2023-08-08T13:37:19;3.65;;;1.63;;
12900;SDS011;6518;50.930;5.344;2023-08-08T13:39:47;4.30;;;1.83;;
12900;SDS011;6518;50.930;5.344;2023-08-08T13:42:14;4.57;;;1.25;;
12900;SDS011;6518;50.930;5.344;2023-08-08T13:44:41;3.65;;;1.50;;
12900;SDS011;6518;50.930;5.344;2023-08-08T13:47:09;3.92;;;1.60;;
12900;SDS011;6518;50.930;5.344;2023-08-08T13:49:36;5.75;;;1.65;;
12900;SDS011;6518;50.930;5.344;2023-08-08T13:52:04;3.30;;;1.63;;
12900;SDS011;6518;50.930;5.344;2023-08-08T13:54:31;5.10;;;1.65;;
12900;SDS011;6518;50.930;5.344;2023-08-08T13:57:00;6.03;;;1.80;;
12900;SDS011;6518;50.930;5.344;2023-08-08T13:59:27;4.25;;;1.45;;
12900;SDS011;6518;50.930;5.344;2023-08-08T14:01:55;3.58;;;1.40;;
12900;SDS011;6518;50.930;5.344;2023-08-08T14:04:22;3.20;;;1.50;;
12900;SDS011;6518;50.930;5.344;2023-08-08T14:06:48;4.28;;;1.80;;
12900;SDS011;6518;50.930;5.344;2023-08-08T14:09:16;3.40;;;1.42;;
12900;SDS011;6518;50.930;5.344;2023-08-08T14:11:43;3.08;;;1.55;;
12900;SDS011;6518;50.930;5.344;2023-08-08T14:14:12;4.10;;;1.50;;
12900;SDS011;6518;50.930;5.344;2023-08-08T14:16:39;3.55;;;1.38;;
12900;SDS011;6518;50.930;5.344;2023-08-08T14:19:07;3.50;;;1.52;;
12900;SDS011;6518;50.930;5.344;2023-08-08T14:21:34;3.50;;;1.90;;
12900;SDS011;6518;50.930;5.344;2023-08-08T14:24:01;2.65;;;1.40;;
12900;SDS011;6518;50.930;5.344;2023-08-08T14:26:29;3.85;;;1.52;;
12900;SDS011;6518;50.930;5.344;2023-08-08T14:28:56;2.88;;;1.25;;
12900;SDS011;6518;50.930;5.344;2023-08-08T14:31:24;2.85;;;1.40;;
12900;SDS011;6518;50.930;5.344;2023-08-08T14:33:51;3.33;;;1.65;;
12900;SDS011;6518;50.930;5.344;2023-08-08T14:36:18;4.45;;;1.65;;
12900;SDS011;6518;50.930;5.344;2023-08-08T14:38:45;4.18;;;2.13;;
12900;SDS011;6518;50.930;5.344;2023-08-08T14:41:12;3.47;;;1.50;;
12900;SDS011;6518;50.930;5.344;2023-08-08T14:43:39;6.22;;;1.85;;
12900;SDS011;6518;50.930;5.344;2023-08-08T14:46:06;2.63;;;1.38;;
12900;SDS011;6518;50.930;5.344;2023-08-08T14:48:35;3.85;;;1.60;;
12900;SDS011;6518;50.930;5.344;2023-08-08T14:51:02;2.88;;;1.75;;
12900;SDS011;6518;50.930;5.344;2023-08-08T14:53:29;2.20;;;1.30;;
12900;SDS011;6518;50.930;5.344;2023-08-08T14:55:56;4.43;;;1.80;;
12900;SDS011;6518;50.930;5.344;2023-08-08T14:58:23;3.35;;;1.88;;
12900;SDS011;6518;50.930;5.344;2023-08-08T15:00:50;4.28;;;1.60;;